Time;durP1;ratioP1;P1;durP2;ratioP2;P2;SDS_P1;SDS_P2;PMS_P1;PMS_P2;Temp;Humidity;BMP_temperature;BMP_pressure;BME280_temperature;BME280_humidity;BME280_pressure;Samples;Min_cycle;Max_cycle;Signal;HPM_P1;HPM_P2
2023/01/28 00:01:04;;;;;;;26.50;10.60;;;;;;;1.00;100.00;98895.97;2570137;28;20050;-86
2023/01/28 00:02:20;;;;;;;27.52;10.93;;;;;;;0.90;100.00;98903.53;2569274;28;20486;-86
2023/01/28 00:03:36;;;;;;;25.90;10.98;;;;;;;1.00;100.00;98901.13;2568865;28;20731;-88
2023/01/28 00:04:52;;;;;;;24.40;9.90;;;;;;;1.15;100.00;98895.34;2568618;28;20116;-84
2023/01/28 00:06:13;;;;;;;28.33;10.82;;;;;;;1.33;100.00;98899.97;2568989;28;20054;-85
2023/01/28 00:07:28;;;;;;;24.95;9.88;;;;;;;1.33;100.00;98893.13;2571269;28;20050;-85
2023/01/28 00:08:44;;;;;;;28.85;10.60;;;;;;;1.14;100.00;98897.09;2570513;28;20047;-87
2023/01/28 00:10:00;;;;;;;21.40;9.55;;;;;;;0.81;100.00;98898.19;2570390;28;20050;-86
2023/01/28 00:11:15;;;;;;;25.58;10.02;;;;;;;1.09;100.00;98897.00;2570111;28;20054;-84
2023/01/28 00:12:31;;;;;;;27.30;10.13;;;;;;;1.33;100.00;98890.53;2558520;28;20071;-86
2023/01/28 00:13:51;;;;;;;20.70;8.45;;;;;;;0.62;100.00;98890.13;2563618;28;20502;-84
2023/01/28 00:15:07;;;;;;;23.30;10.35;;;;;;;0.97;100.00;98889.03;2569990;28;20093;-84
2023/01/28 00:16:23;;;;;;;27.20;9.20;;;;;;;1.14;100.00;98889.34;2569539;28;20058;-85
2023/01/28 00:17:39;;;;;;;27.25;9.93;;;;;;;1.15;100.00;98892.78;2569245;28;20113;-86
2023/01/28 00:18:54;;;;;;;24.92;10.05;;;;;;;1.19;100.00;98889.41;2570488;28;20046;-86
2023/01/28 00:20:10;;;;;;;28.08;11.07;;;;;;;1.38;100.00;98888.88;2569606;28;20047;-85
2023/01/28 00:21:26;;;;;;;21.50;9.05;;;;;;;1.34;100.00;98893.97;2569849;28;20055;-85
2023/01/28 00:22:46;;;;;;;23.80;9.38;;;;;;;1.30;100.00;98894.75;2569064;28;20061;-86
2023/01/28 00:24:02;;;;;;;22.50;10.55;;;;;;;1.04;100.00;98892.59;2568482;28;20118;-85
2023/01/28 00:25:18;;;;;;;28.48;10.80;;;;;;;0.96;100.00;98895.91;2570726;28;20234;-86
2023/01/28 00:26:34;;;;;;;22.98;9.02;;;;;;;0.69;100.00;98899.69;2569433;28;20075;-86
2023/01/28 00:27:50;;;;;;;27.52;10.10;;;;;;;0.77;100.00;98902.44;2568038;28;20078;-85
2023/01/28 00:29:06;;;;;;;25.85;9.73;;;;;;;0.95;100.00;98898.47;2570416;28;20424;-86
2023/01/28 00:30:22;;;;;;;28.02;10.93;;;;;;;0.81;100.00;98893.94;2569779;28;20125;-85
2023/01/28 00:31:39;;;;;;;29.60;11.18;;;;;;;1.06;100.00;98891.78;2571205;28;20050;-88
2023/01/28 00:32:55;;;;;;;28.95;10.48;;;;;;;1.17;100.00;98889.41;2571700;28;20054;-86
2023/01/28 00:34:11;;;;;;;27.05;10.57;;;;;;;0.97;100.00;98900.22;2571692;28;20060;-86
2023/01/28 00:35:26;;;;;;;23.13;9.10;;;;;;;0.65;100.00;98897.06;2570365;28;20050;-85
2023/01/28 00:36:42;;;;;;;28.27;11.27;;;;;;;0.98;100.00;98896.81;2571357;28;20350;-86
2023/01/28 00:37:59;;;;;;;29.48;11.48;;;;;;;0.89;100.00;98896.66;2571764;28;20152;-85
2023/01/28 00:39:14;;;;;;;27.40;10.80;;;;;;;1.03;100.00;98893.44;2570695;28;20059;-87
2023/01/28 00:40:30;;;;;;;35.80;12.00;;;;;;;1.00;100.00;98893.41;2572825;28;20047;-86
2023/01/28 00:41:45;;;;;;;26.48;10.23;;;;;;;0.75;100.00;98906.69;2572238;28;20104;-86
2023/01/28 00:43:01;;;;;;;28.38;10.93;;;;;;;1.07;100.00;98890.06;2571417;28;20076;-86
2023/01/28 00:44:17;;;;;;;20.42;7.70;;;;;;;0.41;100.00;98900.88;2571111;28;20050;-86
2023/01/28 00:45:33;;;;;;;22.65;9.68;;;;;;;0.78;100.00;98900.72;2570345;28;20160;-85
2023/01/28 00:46:48;;;;;;;28.25;11.00;;;;;;;0.93;100.00;98897.56;2572028;28;20489;-87
2023/01/28 00:48:05;;;;;;;25.08;9.93;;;;;;;1.19;100.00;98897.13;2570431;28;20393;-89
2023/01/28 00:49:21;;;;;;;26.27;9.98;;;;;;;1.21;100.00;98898.91;2571669;28;20131;-85
2023/01/28 00:50:38;;;;;;;25.30;10.93;;;;;;;1.20;100.00;98904.06;2571350;28;20050;-86
2023/01/28 00:51:53;;;;;;;27.02;10.98;;;;;;;0.89;100.00;98900.91;2571587;28;20046;-89
2023/01/28 00:53:09;;;;;;;32.97;11.68;;;;;;;0.92;100.00;98906.16;2569793;28;20047;-86
2023/01/28 00:54:25;;;;;;;30.33;11.43;;;;;;;0.95;100.00;98904.47;2570262;28;20050;-86
2023/01/28 00:55:40;;;;;;;27.70;10.48;;;;;;;1.09;100.00;98899.56;2571783;28;20046;-85
2023/01/28 00:56:56;;;;;;;30.90;11.63;;;;;;;1.19;100.00;98900.59;2572523;28;20082;-86
2023/01/28 00:58:11;;;;;;;28.02;11.73;;;;;;;1.26;100.00;98899.88;2572041;28;20133;-85
2023/01/28 00:59:27;;;;;;;30.25;11.35;;;;;;;0.96;100.00;98901.06;2570905;28;20592;-90
2023/01/28 01:00:42;;;;;;;22.98;8.07;;;;;;;0.90;100.00;98906.09;2570951;28;20056;-87
2023/01/28 01:02:11;;;;;;;24.67;10.93;;;;;;;0.89;100.00;98900.91;2571487;28;20054;-85
2023/01/28 01:03:26;;;;;;;28.10;9.98;;;;;;;1.30;100.00;98897.34;2571985;28;20189;-86
2023/01/28 01:04:53;;;;;;;28.20;11.77;;;;;;;1.36;100.00;98902.59;2571317;28;20113;-86
2023/01/28 01:06:10;;;;;;;29.35;10.52;;;;;;;1.41;100.00;98901.81;2572978;28;20133;-86
2023/01/28 01:07:33;;;;;;;26.30;10.50;;;;;;;1.57;100.00;98896.91;2569904;28;20055;-86
2023/01/28 01:08:50;;;;;;;21.92;9.52;;;;;;;1.48;100.00;98912.25;2571428;28;20497;-86
2023/01/28 01:10:13;;;;;;;26.70;10.85;;;;;;;1.44;100.00;98903.59;2570334;28;20061;-88
2023/01/28 01:11:29;;;;;;;25.60;11.57;;;;;;;1.34;100.00;98905.16;2572343;28;20050;-87
2023/01/28 01:12:46;;;;;;;25.45;10.30;;;;;;;1.29;100.00;98909.34;2571365;28;20129;-86
2023/01/28 01:14:04;;;;;;;24.65;9.23;;;;;;;1.30;100.00;98912.81;2572085;28;20050;-86
2023/01/28 01:15:19;;;;;;;25.00;10.82;;;;;;;1.51;100.00;98907.16;2571225;28;20050;-86
2023/01/28 01:16:37;;;;;;;26.83;10.35;;;;;;;1.44;100.00;98911.34;2570372;28;20065;-87
2023/01/28 01:17:53;;;;;;;26.52;10.35;;;;;;;1.39;100.00;98911.25;2572473;28;20050;-86
2023/01/28 01:19:08;;;;;;;24.65;10.10;;;;;;;1.49;100.00;98909.69;2571019;28;20042;-85
2023/01/28 01:20:27;;;;;;;33.22;12.02;;;;;;;1.27;100.00;98908.47;2572131;28;20497;-89
2023/01/28 01:21:43;;;;;;;30.52;11.82;;;;;;;1.33;100.00;98902.56;2570724;28;20214;-88
2023/01/28 01:22:59;;;;;;;32.28;11.18;;;;;;;1.28;100.00;98910.22;2571660;28;20057;-85
2023/01/28 01:24:14;;;;;;;29.42;10.73;;;;;;;1.39;100.00;98907.78;2569774;28;20043;-87
2023/01/28 01:25:30;;;;;;;30.30;11.75;;;;;;;1.34;100.00;98909.44;2571911;28;20409;-87
2023/01/28 01:26:45;;;;;;;27.10;11.02;;;;;;;1.29;100.00;98905.94;2570180;28;20054;-85
2023/01/28 01:28:01;;;;;;;29.77;12.40;;;;;;;0.96;100.00;98906.22;2572145;28;20521;-86
2023/01/28 01:29:17;;;;;;;37.33;11.63;;;;;;;1.24;100.00;98909.28;2571936;28;20042;-85
2023/01/28 01:30:32;;;;;;;29.83;10.27;;;;;;;1.46;100.00;98906.19;2571898;28;20053;-85
2023/01/28 01:31:48;;;;;;;21.67;8.75;;;;;;;1.20;100.00;98911.81;2570410;28;20054;-86
2023/01/28 01:33:03;;;;;;;30.42;11.98;;;;;;;1.13;100.00;98913.41;2572500;28;20054;-85
2023/01/28 01:34:19;;;;;;;36.03;12.48;;;;;;;1.37;100.00;98912.06;2570072;28;20051;-86
2023/01/28 01:35:35;;;;;;;29.13;11.68;;;;;;;1.21;100.00;98916.97;2570634;28;20046;-87
2023/01/28 01:36:50;;;;;;;33.03;12.15;;;;;;;1.54;100.00;98914.94;2568941;28;20826;-87
2023/01/28 01:38:06;;;;;;;31.38;12.23;;;;;;;0.97;100.00;98920.84;2571045;28;20076;-85
2023/01/28 01:39:22;;;;;;;34.25;13.02;;;;;;;1.21;100.00;98918.69;2570892;28;20066;-86
2023/01/28 01:40:38;;;;;;;32.42;12.25;;;;;;;1.22;100.00;98918.69;2569080;28;20053;-85
2023/01/28 01:41:53;;;;;;;33.08;12.43;;;;;;;1.34;100.00;98927.50;2572119;28;20404;-86
2023/01/28 01:43:20;;;;;;;27.70;10.80;;;;;;;1.30;100.00;98928.31;2570366;28;20065;-86
2023/01/28 01:44:51;;;;;;;27.75;10.98;;;;;;;1.47;100.00;98923.44;2569551;28;20101;-86
2023/01/28 01:46:06;;;;;;;30.75;11.38;;;;;;;1.37;100.00;98922.38;2570657;28;20085;-85
2023/01/28 01:47:43;;;;;;;27.42;12.55;;;;;;;1.18;100.00;98923.78;2570895;28;20345;-85
2023/01/28 01:49:11;;;;;;;29.85;10.60;;;;;;;0.93;100.00;98929.38;2571014;28;20545;-86
2023/01/28 01:50:38;;;;;;;28.17;11.27;;;;;;;1.15;100.00;98928.88;2570389;28;20079;-85
2023/01/28 01:52:02;;;;;;;32.88;11.38;;;;;;;1.09;100.00;98924.47;2569630;28;20555;-88
2023/01/28 01:53:21;;;;;;;24.75;10.90;;;;;;;1.17;100.00;98920.34;2571256;28;20604;-85
2023/01/28 01:54:38;;;;;;;33.45;12.57;;;;;;;0.82;100.00;98928.28;2570919;28;20050;-87
2023/01/28 01:55:59;;;;;;;30.65;11.48;;;;;;;1.20;100.00;98922.13;2570218;28;20426;-86
2023/01/28 01:57:20;;;;;;;33.50;11.73;;;;;;;1.27;100.00;98924.84;2569761;28;20235;-86
2023/01/28 01:58:39;;;;;;;26.13;10.43;;;;;;;1.16;100.00;98921.19;2571837;28;20465;-85
2023/01/28 02:00:03;;;;;;;35.00;12.20;;;;;;;0.89;100.00;98930.16;2569932;28;20728;-85
2023/01/28 02:01:21;;;;;;;30.30;11.60;;;;;;;1.03;100.00;98926.97;2570491;28;20046;-85
2023/01/28 02:02:42;;;;;;;31.85;12.40;;;;;;;0.74;100.00;98928.13;2570951;28;20077;-87
2023/01/28 02:04:07;;;;;;;29.65;11.27;;;;;;;0.87;100.00;98925.81;2571049;28;20470;-89
2023/01/28 02:05:23;;;;;;;35.28;11.15;;;;;;;1.07;100.00;98924.47;2569291;28;20417;-86
2023/01/28 02:06:40;;;;;;;35.20;12.30;;;;;;;1.18;100.00;98927.25;2571010;28;20113;-86
2023/01/28 02:09:37;;;;;;;29.95;11.55;;;;;;;1.37;100.00;98927.53;2570151;28;20061;-85
2023/01/28 02:11:01;;;;;;;33.15;11.10;;;;;;;1.07;100.00;98933.91;2568948;28;20062;-87
2023/01/28 02:12:21;;;;;;;33.53;12.93;;;;;;;1.11;100.00;98938.28;2569598;28;20391;-90
2023/01/28 02:13:46;;;;;;;32.33;12.38;;;;;;;1.33;100.00;98930.94;2569314;28;20137;-86
2023/01/28 02:15:08;;;;;;;33.22;12.52;;;;;;;1.50;100.00;98932.06;2569012;28;20061;-86
2023/01/28 02:16:25;;;;;;;23.23;9.32;;;;;;;1.10;100.00;98942.56;2569309;28;20572;-89
2023/01/28 02:17:41;;;;;;;33.85;12.30;;;;;;;1.13;100.00;98941.78;2570268;28;20058;-85
2023/01/28 02:18:57;;;;;;;34.55;12.98;;;;;;;1.13;100.00;98939.19;2569801;28;20493;-85
2023/01/28 02:20:19;;;;;;;35.47;11.80;;;;;;;1.22;100.00;98938.50;2571074;28;20133;-89
2023/01/28 02:22:03;;;;;;;34.05;12.15;;;;;;;1.04;100.00;98941.59;2570925;28;20054;-84
2023/01/28 02:23:49;;;;;;;30.67;11.20;;;;;;;1.14;100.00;98938.34;2570598;28;20051;-88
2023/01/28 02:25:33;;;;;;;30.63;11.07;;;;;;;1.06;100.00;98942.50;2571260;28;20130;-86
2023/01/28 02:27:18;;;;;;;32.78;10.80;;;;;;;1.26;100.00;98938.56;2569297;28;20137;-86
2023/01/28 02:28:49;;;;;;;32.08;11.60;;;;;;;1.39;100.00;98937.06;2568601;28;20645;-87
2023/01/28 02:30:24;;;;;;;33.33;13.07;;;;;;;1.15;100.00;98946.94;2569578;28;20081;-87
2023/01/28 02:31:59;;;;;;;28.38;10.52;;;;;;;0.98;100.00;98938.06;2569577;28;20061;-87
2023/01/28 02:34:10;;;;;;;31.42;11.52;;;;;;;1.30;100.00;98934.31;2570581;28;20354;-88
2023/01/28 02:35:51;;;;;;;31.92;11.55;;;;;;;1.36;100.00;98930.97;2567118;28;20089;-87
2023/01/28 02:37:12;;;;;;;34.50;11.52;;;;;;;1.16;100.00;98930.63;2569214;28;20058;-87
2023/01/28 02:38:39;;;;;;;38.47;12.25;;;;;;;1.34;100.00;98924.91;2570594;28;20576;-86
2023/01/28 02:40:00;;;;;;;27.95;12.07;;;;;;;1.07;100.00;98931.31;2569458;28;20145;-86
2023/01/28 02:41:30;;;;;;;34.83;12.85;;;;;;;1.18;100.00;98944.41;2569853;28;20121;-86
2023/01/28 02:42:46;;;;;;;40.45;13.57;;;;;;;1.11;100.00;98938.28;2569609;28;20824;-86
2023/01/28 02:44:03;;;;;;;31.27;11.48;;;;;;;1.05;100.00;98944.22;2570872;28;20058;-87
2023/01/28 02:48:46;;;;;;;30.80;12.02;;;;;;;1.40;100.00;98938.78;2569913;28;20086;-85
2023/01/28 02:50:09;;;;;;;32.75;12.88;;;;;;;1.31;100.00;98936.03;2569791;28;20050;-84
2023/01/28 02:51:45;;;;;;;37.45;13.90;;;;;;;1.26;100.00;98951.47;2568444;28;20527;-85
2023/01/28 02:55:04;;;;;;;31.13;11.07;;;;;;;1.42;100.00;98938.84;2570471;28;20062;-84
2023/01/28 02:57:03;;;;;;;32.33;13.73;;;;;;;1.31;100.00;98945.50;2570361;28;20536;-86
2023/01/28 02:58:58;;;;;;;30.77;11.85;;;;;;;1.29;100.00;98945.47;2548890;29;20492;-85
2023/01/28 03:00:49;;;;;;;28.35;10.05;;;;;;;1.45;100.00;98938.88;2559090;28;20108;-85
2023/01/28 03:02:19;;;;;;;25.17;9.80;;;;;;;1.29;100.00;98936.88;2570481;28;20389;-85
2023/01/28 03:03:58;;;;;;;30.67;12.60;;;;;;;1.41;100.00;98937.94;2569480;28;20061;-88
2023/01/28 03:05:38;;;;;;;26.58;10.40;;;;;;;1.40;100.00;98943.09;2568609;28;20097;-85
2023/01/28 03:06:59;;;;;;;33.05;11.98;;;;;;;1.18;100.00;98941.81;2571919;28;20081;-85
2023/01/28 03:09:51;;;;;;;33.65;11.70;;;;;;;1.36;100.00;98937.00;2569606;28;20058;-85
2023/01/28 03:37:21;;;;;;;32.45;10.10;;;;;;;0.83;100.00;98946.38;2568053;28;20146;-85
2023/01/28 03:38:47;;;;;;;30.55;11.35;;;;;;;1.17;100.00;98943.56;2569904;28;20133;-85
2023/01/28 03:40:06;;;;;;;27.70;10.00;;;;;;;0.97;100.00;98949.19;2569111;28;20158;-84
2023/01/28 03:41:24;;;;;;;34.08;11.70;;;;;;;1.17;100.00;98946.13;2571830;28;20074;-84
2023/01/28 03:42:40;;;;;;;26.05;11.18;;;;;;;1.09;100.00;98939.97;2567799;28;20053;-85
2023/01/28 03:43:55;;;;;;;34.78;12.45;;;;;;;1.25;100.00;98948.84;2569660;28;20047;-86
2023/01/28 03:45:12;;;;;;;32.10;12.85;;;;;;;1.21;100.00;98950.50;2568723;28;20050;-86
2023/01/28 03:46:28;;;;;;;28.17;10.73;;;;;;;0.82;100.00;98956.63;2562271;28;20062;-85
2023/01/28 03:47:44;;;;;;;28.63;11.68;;;;;;;0.98;100.00;98945.81;2568795;28;20054;-85
2023/01/28 03:48:59;;;;;;;29.13;11.85;;;;;;;1.01;100.00;98951.84;2570831;28;20520;-84
2023/01/28 03:50:15;;;;;;;30.63;10.68;;;;;;;1.15;100.00;98952.09;2569667;28;20047;-85
2023/01/28 03:51:30;;;;;;;28.75;11.93;;;;;;;1.24;100.00;98949.69;2570405;28;20054;-86
2023/01/28 03:52:46;;;;;;;28.63;10.18;;;;;;;1.27;100.00;98954.91;2570637;28;20047;-85
2023/01/28 03:54:02;;;;;;;29.60;12.45;;;;;;;1.26;100.00;98946.31;2570573;28;20050;-85
2023/01/28 03:55:18;;;;;;;30.27;11.98;;;;;;;1.27;100.00;98939.41;2570278;28;20047;-85
2023/01/28 03:56:36;;;;;;;31.42;12.10;;;;;;;1.12;100.00;98948.63;2570832;28;20551;-85
2023/01/28 03:57:52;;;;;;;35.63;12.63;;;;;;;1.29;100.00;98948.06;2570555;28;20062;-85
2023/01/28 03:59:08;;;;;;;30.08;11.77;;;;;;;1.21;100.00;98950.50;2570617;28;20907;-86
2023/01/28 04:00:23;;;;;;;27.60;10.93;;;;;;;0.92;100.00;98947.41;2570396;28;20050;-85
2023/01/28 04:01:39;;;;;;;25.00;10.75;;;;;;;0.85;100.00;98956.72;2570244;28;20051;-84
2023/01/28 04:02:54;;;;;;;32.67;11.13;;;;;;;0.75;100.00;98965.09;2571249;28;20047;-85
2023/01/28 04:04:21;;;;;;;29.00;11.48;;;;;;;0.89;100.00;98947.31;2570382;28;20061;-86
2023/01/28 04:05:37;;;;;;;29.42;11.07;;;;;;;1.17;100.00;98950.41;2569651;28;20055;-85
2023/01/28 04:06:54;;;;;;;29.73;11.20;;;;;;;1.15;100.00;98954.69;2573126;28;20061;-86
2023/01/28 04:08:10;;;;;;;31.42;12.18;;;;;;;1.37;100.00;98943.03;2572447;28;20153;-85
2023/01/28 04:09:26;;;;;;;26.05;10.82;;;;;;;1.05;100.00;98951.06;2570389;28;20142;-84
2023/01/28 04:10:42;;;;;;;24.63;10.95;;;;;;;1.15;100.00;98950.41;2572764;28;20065;-84
2023/01/28 04:11:58;;;;;;;27.63;11.38;;;;;;;1.15;100.00;98950.41;2570916;28;20038;-85
2023/01/28 04:13:14;;;;;;;23.77;8.55;;;;;;;0.86;100.00;98952.41;2572758;28;20057;-86
2023/01/28 04:14:30;;;;;;;30.77;12.40;;;;;;;0.91;100.00;98959.41;2570392;28;20046;-88
2023/01/28 04:15:46;;;;;;;25.65;10.52;;;;;;;0.89;100.00;98957.63;2570219;28;20059;-86
2023/01/28 04:17:01;;;;;;;29.10;11.13;;;;;;;0.66;100.00;98961.50;2572853;28;20054;-84
2023/01/28 04:18:18;;;;;;;27.23;9.95;;;;;;;0.75;100.00;98955.66;2572241;28;20557;-84
2023/01/28 04:19:35;;;;;;;31.67;10.70;;;;;;;0.79;100.00;98960.03;2571178;28;20050;-85
2023/01/28 04:20:51;;;;;;;29.05;11.00;;;;;;;0.68;100.00;98961.53;2573050;28;20054;-85
2023/01/28 04:22:09;;;;;;;24.90;9.77;;;;;;;0.95;100.00;98958.63;2572157;28;20061;-84
2023/01/28 04:23:25;;;;;;;20.60;7.22;;;;;;;1.04;100.00;98962.22;2571366;28;20404;-84
2023/01/28 04:24:41;;;;;;;24.42;9.23;;;;;;;0.90;100.00;98961.94;2572456;28;20219;-86
2023/01/28 04:25:56;;;;;;;25.15;9.40;;;;;;;0.74;100.00;98963.38;2573058;28;20045;-86
2023/01/28 04:27:12;;;;;;;25.67;9.25;;;;;;;0.81;100.00;98963.53;2571379;28;20081;-86
2023/01/28 04:28:28;;;;;;;20.13;8.32;;;;;;;0.77;100.00;98968.56;2570248;28;20051;-87
2023/01/28 04:29:43;;;;;;;22.17;9.35;;;;;;;0.75;100.00;98965.09;2570230;28;20074;-85
2023/01/28 04:30:59;;;;;;;24.13;10.13;;;;;;;1.18;100.00;98960.78;2573138;28;20046;-86
2023/01/28 04:32:14;;;;;;;26.70;10.57;;;;;;;1.39;100.00;98954.22;2572246;28;20084;-85
2023/01/28 04:33:30;;;;;;;29.40;10.00;;;;;;;1.29;100.00;98958.38;2570604;28;20042;-85
2023/01/28 04:34:46;;;;;;;28.27;9.40;;;;;;;1.18;100.00;98965.03;2571435;28;20105;-85
2023/01/28 04:36:01;;;;;;;26.70;10.40;;;;;;;1.26;100.00;98961.78;2571657;28;20116;-86
2023/01/28 04:37:17;;;;;;;26.55;10.40;;;;;;;1.36;100.00;98965.41;2571074;28;20057;-87
2023/01/28 04:38:33;;;;;;;24.65;10.15;;;;;;;1.51;100.00;98962.19;2570839;28;20046;-85
2023/01/28 04:39:48;;;;;;;23.35;10.15;;;;;;;1.41;100.00;98966.34;2571221;28;20731;-86
2023/01/28 04:41:04;;;;;;;27.60;9.85;;;;;;;1.66;100.00;98963.28;2571597;28;20078;-87
2023/01/28 04:42:19;;;;;;;26.35;10.45;;;;;;;1.57;100.00;98965.75;2571632;28;20058;-86
2023/01/28 04:43:35;;;;;;;22.80;9.23;;;;;;;1.62;100.00;98964.09;2571462;28;20418;-85
2023/01/28 04:44:51;;;;;;;24.17;10.30;;;;;;;1.64;100.00;98962.41;2571718;28;20042;-85
2023/01/28 04:46:06;;;;;;;24.45;9.88;;;;;;;1.69;100.00;98961.63;2570653;28;20046;-85
2023/01/28 04:47:22;;;;;;;23.80;10.07;;;;;;;1.82;100.00;98961.84;2571429;28;20421;-86
2023/01/28 04:48:37;;;;;;;25.42;10.20;;;;;;;1.72;100.00;98963.41;2571850;28;20093;-84
2023/01/28 04:49:53;;;;;;;26.40;10.63;;;;;;;1.68;100.00;98959.03;2570651;28;20050;-85
2023/01/28 04:51:09;;;;;;;18.65;8.23;;;;;;;1.18;100.00;98965.03;2570333;28;20053;-85
2023/01/28 04:52:24;;;;;;;17.13;7.93;;;;;;;1.24;100.00;98963.44;2571031;28;20046;-87
2023/01/28 04:53:40;;;;;;;21.08;8.00;;;;;;;1.09;100.00;98966.63;2571098;28;20058;-85
2023/01/28 04:54:56;;;;;;;22.85;8.98;;;;;;;0.89;100.00;98963.66;2570213;28;20058;-85
2023/01/28 04:56:11;;;;;;;20.20;8.88;;;;;;;1.12;100.00;98969.25;2570998;28;20452;-86
2023/01/28 04:57:27;;;;;;;22.05;7.43;;;;;;;1.30;100.00;98961.84;2570851;28;20066;-85
2023/01/28 04:58:42;;;;;;;18.95;7.95;;;;;;;1.33;100.00;98967.03;2571941;28;20050;-84
2023/01/28 04:59:58;;;;;;;16.35;6.93;;;;;;;1.47;100.00;98968.16;2572272;28;20125;-85
2023/01/28 05:01:14;;;;;;;20.08;8.38;;;;;;;1.41;100.00;98970.63;2570512;28;20043;-86
2023/01/28 05:02:29;;;;;;;19.27;7.45;;;;;;;1.31;100.00;98976.47;2571228;28;20055;-85
2023/01/28 05:03:45;;;;;;;14.55;6.35;;;;;;;1.43;100.00;98966.38;2572441;28;20117;-85
2023/01/28 05:05:03;;;;;;;18.80;7.57;;;;;;;1.65;100.00;98975.34;2571171;28;20058;-85
2023/01/28 05:06:19;;;;;;;16.33;6.70;;;;;;;1.39;100.00;98970.59;2569642;28;20081;-86
2023/01/28 05:07:35;;;;;;;14.00;6.25;;;;;;;1.38;100.00;98973.13;2570814;28;20058;-87
2023/01/28 05:08:51;;;;;;;16.52;8.07;;;;;;;1.41;100.00;98975.81;2570886;28;20059;-85
2023/01/28 05:10:07;;;;;;;15.77;7.25;;;;;;;1.49;100.00;98976.78;2571160;28;20477;-85
2023/01/28 05:11:23;;;;;;;15.02;5.97;;;;;;;1.53;100.00;98973.41;2571218;28;20781;-84
2023/01/28 05:12:39;;;;;;;13.60;6.25;;;;;;;1.61;100.00;98976.16;2571200;28;20081;-88
2023/01/28 05:13:54;;;;;;;15.05;7.43;;;;;;;1.61;100.00;98976.16;2571584;28;20077;-87
2023/01/28 05:15:10;;;;;;;13.65;6.13;;;;;;;1.58;100.00;98978.66;2571631;28;20727;-85
2023/01/28 05:16:25;;;;;;;11.77;5.40;;;;;;;1.39;100.00;98978.34;2569495;28;20113;-85
2023/01/28 05:17:42;;;;;;;12.93;5.45;;;;;;;1.36;100.00;98974.81;2570445;28;20046;-85
2023/01/28 05:18:57;;;;;;;16.45;6.55;;;;;;;1.29;100.00;98973.84;2569546;28;20521;-86
2023/01/28 05:20:14;;;;;;;9.05;4.72;;;;;;;1.46;100.00;98974.16;2569345;28;20050;-85
2023/01/28 05:21:29;;;;;;;12.40;5.72;;;;;;;1.19;100.00;98983.13;2569110;28;20075;-86
2023/01/28 05:22:45;;;;;;;12.68;6.22;;;;;;;1.46;100.00;98974.16;2571625;28;20054;-86
2023/01/28 05:24:00;;;;;;;14.00;5.70;;;;;;;1.48;100.00;98984.53;2572329;28;20047;-85
2023/01/28 05:25:16;;;;;;;16.73;6.30;;;;;;;1.32;100.00;98976.47;2571204;28;20513;-85
2023/01/28 05:26:32;;;;;;;12.73;5.72;;;;;;;1.54;100.00;98980.34;2572922;28;20057;-84
2023/01/28 05:27:51;;;;;;;12.95;5.95;;;;;;;1.45;100.00;98980.16;2570264;28;20051;-84
2023/01/28 05:29:07;;;;;;;14.95;5.85;;;;;;;1.40;100.00;98977.50;2570941;28;20110;-85
2023/01/28 05:30:23;;;;;;;16.02;6.82;;;;;;;1.29;100.00;98976.44;2568937;28;20058;-83
2023/01/28 05:31:38;;;;;;;13.63;5.95;;;;;;;1.26;100.00;98987.59;2569430;28;20055;-85
2023/01/28 05:32:55;;;;;;;13.80;6.10;;;;;;;1.41;100.00;98975.81;2569150;28;20054;-85
2023/01/28 05:34:11;;;;;;;13.00;6.07;;;;;;;1.45;100.00;98968.97;2572254;28;20485;-87
2023/01/28 05:35:26;;;;;;;15.20;5.80;;;;;;;1.43;100.00;98981.84;2571241;28;20125;-85
2023/01/28 05:36:42;;;;;;;15.10;6.55;;;;;;;1.41;100.00;98983.53;2571920;28;20505;-85
2023/01/28 05:37:57;;;;;;;20.80;8.70;;;;;;;1.38;100.00;98978.31;2571415;28;20057;-90
2023/01/28 05:39:13;;;;;;;19.85;7.13;;;;;;;1.19;100.00;98983.13;2572297;28;20132;-85
2023/01/28 05:40:29;;;;;;;16.33;6.63;;;;;;;1.41;100.00;98980.97;2569983;28;20425;-85
2023/01/28 05:41:44;;;;;;;15.15;6.13;;;;;;;1.22;100.00;98988.34;2573102;28;20193;-85
2023/01/28 05:43:00;;;;;;;12.32;6.00;;;;;;;0.86;100.00;98979.09;2570460;28;20046;-84
2023/01/28 05:44:15;;;;;;;15.27;6.20;;;;;;;0.94;100.00;98980.09;2569260;28;20102;-85
2023/01/28 05:45:31;;;;;;;12.18;5.82;;;;;;;1.14;100.00;98989.94;2570307;28;20512;-84
2023/01/28 05:46:47;;;;;;;9.88;5.22;;;;;;;1.26;100.00;98985.00;2570546;28;20050;-85
2023/01/28 05:48:02;;;;;;;14.25;5.93;;;;;;;1.02;100.00;98989.69;2569088;28;20046;-84
2023/01/28 05:49:18;;;;;;;12.23;6.28;;;;;;;1.30;100.00;98988.47;2568544;28;20457;-85
2023/01/28 05:50:34;;;;;;;10.52;4.75;;;;;;;1.24;100.00;98991.81;2569037;28;20057;-86
2023/01/28 05:51:49;;;;;;;12.30;5.45;;;;;;;1.33;100.00;98985.09;2569503;28;20050;-85
2023/01/28 05:53:06;;;;;;;14.35;6.45;;;;;;;1.22;100.00;98996.09;2569593;28;20050;-84
2023/01/28 05:54:22;;;;;;;11.65;5.75;;;;;;;1.41;100.00;98991.28;2569691;28;20054;-84
2023/01/28 05:55:37;;;;;;;13.95;5.53;;;;;;;1.23;100.00;98992.66;2570785;28;20117;-85
2023/01/28 05:56:53;;;;;;;13.27;6.20;;;;;;;1.44;100.00;98993.91;2569523;28;20115;-85
2023/01/28 05:58:08;;;;;;;12.25;6.05;;;;;;;1.40;100.00;98986.97;2564552;28;20486;-84
2023/01/28 05:59:24;;;;;;;10.60;6.25;;;;;;;1.45;100.00;98992.19;2569650;28;20194;-85
2023/01/28 06:00:40;;;;;;;16.40;6.50;;;;;;;1.41;100.00;98986.97;2570309;28;20133;-84
2023/01/28 06:01:55;;;;;;;14.52;6.38;;;;;;;1.44;100.00;98985.28;2560451;28;20457;-85
2023/01/28 06:03:11;;;;;;;13.43;6.50;;;;;;;1.39;100.00;98987.78;2566031;28;20073;-84
2023/01/28 06:04:27;;;;;;;10.57;5.53;;;;;;;1.11;100.00;98984.69;2570613;28;20065;-84
2023/01/28 06:05:43;;;;;;;14.95;5.82;;;;;;;1.34;100.00;98995.47;2570923;28;20565;-86
2023/01/28 06:06:58;;;;;;;11.88;5.60;;;;;;;1.23;100.00;98996.97;2570138;28;20051;-86
2023/01/28 06:08:14;;;;;;;13.95;6.88;;;;;;;1.30;100.00;98998.81;2570692;28;20042;-85
2023/01/28 06:09:30;;;;;;;13.65;6.07;;;;;;;1.05;100.00;99002.63;2569105;28;20073;-87
2023/01/28 06:10:46;;;;;;;13.05;5.78;;;;;;;0.87;100.00;99004.03;2569991;28;20182;-84
2023/01/28 06:12:01;;;;;;;11.63;6.55;;;;;;;1.05;100.00;98997.47;2571221;28;20051;-85
2023/01/28 06:13:17;;;;;;;17.27;6.25;;;;;;;1.11;100.00;99006.22;2571118;28;20053;-84
2023/01/28 06:14:32;;;;;;;15.23;5.65;;;;;;;1.36;100.00;99004.09;2570100;28;20050;-85
2023/01/28 06:15:49;;;;;;;13.93;6.15;;;;;;;1.40;100.00;99003.31;2571578;28;20059;-90
2023/01/28 06:17:05;;;;;;;12.15;5.88;;;;;;;0.81;100.00;99002.19;2569790;28;20057;-85
2023/01/28 06:18:20;;;;;;;15.80;7.25;;;;;;;1.27;100.00;99002.22;2569198;28;20049;-84
2023/01/28 06:19:36;;;;;;;13.63;5.93;;;;;;;1.11;100.00;99010.47;2568319;28;20061;-86
2023/01/28 06:20:52;;;;;;;11.82;5.32;;;;;;;1.04;100.00;99003.47;2569047;28;20051;-85
2023/01/28 06:22:07;;;;;;;17.05;6.90;;;;;;;1.18;100.00;99004.63;2571176;28;20046;-85
2023/01/28 06:23:23;;;;;;;19.27;7.43;;;;;;;1.14;100.00;99013.16;2570318;28;20077;-85
2023/01/28 06:24:39;;;;;;;15.32;7.15;;;;;;;1.21;100.00;99014.97;2572430;28;20126;-86
2023/01/28 06:25:55;;;;;;;13.05;6.78;;;;;;;1.35;100.00;99016.94;2569586;28;20054;-85
2023/01/28 06:27:11;;;;;;;11.43;5.28;;;;;;;1.37;100.00;99015.25;2568529;28;20050;-84
2023/01/28 06:28:26;;;;;;;14.30;5.65;;;;;;;1.39;100.00;99022.19;2567849;28;20133;-84
2023/01/28 06:29:42;;;;;;;11.75;4.45;;;;;;;1.15;100.00;99022.63;2568610;28;20058;-85
2023/01/28 06:30:58;;;;;;;14.60;6.25;;;;;;;1.42;100.00;99023.97;2569594;28;20413;-85
2023/01/28 06:32:13;;;;;;;11.75;4.93;;;;;;;1.55;100.00;99017.31;2569374;28;20073;-87
2023/01/28 06:33:29;;;;;;;14.88;6.85;;;;;;;1.56;100.00;99021.63;2569207;28;20047;-86
2023/01/28 06:34:44;;;;;;;13.30;6.78;;;;;;;1.48;100.00;99023.22;2571113;28;20058;-84
2023/01/28 06:36:05;;;;;;;13.77;6.80;;;;;;;1.27;100.00;99025.44;2570592;28;20092;-85
2023/01/28 06:37:21;;;;;;;13.45;6.45;;;;;;;1.32;100.00;99027.22;2571570;28;20057;-83
2023/01/28 06:38:36;;;;;;;12.55;6.13;;;;;;;1.37;100.00;99020.44;2567460;28;20401;-84